Time;durP1;ratioP1;P1;durP2;ratioP2;P2;SDS_P1;SDS_P2;PMS_P1;PMS_P2;Temp;Humidity;BMP_temperature;BMP_pressure;BME280_temperature;BME280_humidity;BME280_pressure;Samples;Min_cycle;Max_cycle;Signal;HPM_P1;HPM_P2
2021/10/05 00:02:07;;;;;;;5.73;4.03;;;11.70;99.90;11.40;96840.00;;;;5087503;28;20653;-70
2021/10/05 00:04:57;;;;;;;4.17;3.77;;;11.60;99.90;11.50;96845.00;;;;5087873;28;20207;-72
2021/10/05 00:07:46;;;;;;;4.70;3.90;;;11.60;99.90;11.60;96850.00;;;;5088114;28;20210;-70
2021/10/05 00:10:34;;;;;;;4.80;4.37;;;11.70;99.90;11.60;96847.00;;;;5087474;28;20218;-70
2021/10/05 00:13:25;;;;;;;5.03;3.37;;;11.70;99.90;11.70;96837.00;;;;5087531;28;20209;-69
2021/10/05 00:16:13;;;;;;;3.67;3.37;;;11.70;99.90;11.50;96833.00;;;;5078191;28;20228;-70
2021/10/05 00:19:02;;;;;;;4.87;4.07;;;11.70;99.90;11.60;96825.00;;;;5086385;28;20260;-70
2021/10/05 00:21:51;;;;;;;4.17;3.63;;;11.70;99.90;11.70;96814.00;;;;5086057;28;20313;-70
2021/10/05 00:24:40;;;;;;;3.73;3.33;;;11.70;99.90;11.80;96803.00;;;;5087916;28;20222;-71
2021/10/05 00:27:29;;;;;;;3.87;3.13;;;11.80;99.90;11.80;96807.00;;;;5086579;28;20199;-71
2021/10/05 00:30:19;;;;;;;4.10;3.13;;;11.80;99.90;11.60;96809.00;;;;5085634;28;20230;-71
2021/10/05 00:33:08;;;;;;;4.50;3.33;;;11.80;99.90;11.60;96800.00;;;;5088159;28;20211;-71
2021/10/05 00:35:56;;;;;;;5.97;3.70;;;11.80;99.90;11.60;96793.00;;;;5086586;28;20585;-71
2021/10/05 00:38:46;;;;;;;3.73;2.70;;;11.70;99.90;11.40;96795.00;;;;5086981;28;20206;-71
2021/10/05 00:41:35;;;;;;;4.07;3.30;;;11.70;99.90;11.20;96787.00;;;;5087677;28;20235;-72
2021/10/05 00:44:32;;;;;;;5.03;3.70;;;11.60;99.90;10.80;96784.00;;;;5086812;28;20195;-71
2021/10/05 00:47:22;;;;;;;4.83;3.47;;;11.40;99.90;10.50;96781.00;;;;5087068;28;20577;-71
2021/10/05 00:50:14;;;;;;;5.57;3.50;;;11.30;99.90;10.60;96788.00;;;;5074233;28;20701;-72
2021/10/05 00:53:04;;;;;;;4.33;3.40;;;11.10;99.90;10.80;96784.00;;;;5085905;28;20604;-71
2021/10/05 00:55:52;;;;;;;7.10;4.40;;;11.10;99.90;10.90;96772.00;;;;5087308;28;21153;-73
2021/10/05 00:58:43;;;;;;;3.83;3.30;;;11.10;99.90;10.70;96784.00;;;;5087981;28;20191;-72
2021/10/05 01:01:32;;;;;;;5.90;3.93;;;11.10;99.90;10.60;96782.00;;;;5086664;28;20230;-69
2021/10/05 01:04:22;;;;;;;5.80;4.03;;;11.00;99.90;10.90;96782.00;;;;5087002;28;20203;-71
2021/10/05 01:07:14;;;;;;;7.10;4.10;;;11.10;99.90;11.00;96771.00;;;;5087275;28;20203;-71
2021/10/05 01:10:05;;;;;;;4.70;3.87;;;11.10;99.90;11.10;96769.00;;;;5087481;28;20214;-71
2021/10/05 01:12:54;;;;;;;5.13;4.00;;;11.10;99.90;11.10;96760.00;;;;5075570;28;20222;-71
2021/10/05 01:15:43;;;;;;;4.07;3.67;;;11.20;99.90;11.10;96759.00;;;;5080727;28;20211;-71
2021/10/05 01:18:32;;;;;;;4.27;3.63;;;11.20;99.90;10.70;96763.00;;;;5082154;28;20303;-71
2021/10/05 01:21:22;;;;;;;5.07;4.53;;;11.10;99.90;10.80;96773.00;;;;5085295;28;20219;-71
2021/10/05 01:24:17;;;;;;;4.37;3.97;;;11.00;99.90;10.70;96747.00;;;;5086456;28;20206;-71
2021/10/05 01:27:06;;;;;;;5.97;3.80;;;11.00;99.90;10.80;96734.00;;;;5085168;28;20221;-71
2021/10/05 01:29:55;;;;;;;4.37;3.97;;;11.00;99.90;11.00;96736.00;;;;5085859;28;20203;-71
2021/10/05 01:32:45;;;;;;;4.50;4.10;;;11.00;99.90;10.90;96733.00;;;;5085937;28;20219;-72
2021/10/05 01:35:35;;;;;;;5.10;3.83;;;11.10;99.90;10.60;96729.00;;;;5086047;28;20203;-71
2021/10/05 01:38:25;;;;;;;5.47;3.90;;;11.00;99.90;10.50;96724.00;;;;5086666;28;20215;-71
2021/10/05 01:41:14;;;;;;;6.50;4.07;;;10.90;99.90;10.60;96726.00;;;;5085737;28;20238;-71
2021/10/05 01:44:03;;;;;;;7.53;4.17;;;10.90;99.90;10.80;96721.00;;;;5086956;28;20203;-71
2021/10/05 01:46:53;;;;;;;5.10;3.97;;;10.90;99.90;10.60;96721.00;;;;5085410;28;20207;-71
2021/10/05 01:49:42;;;;;;;7.23;4.30;;;10.90;99.90;10.50;96704.00;;;;5086021;28;20196;-71
2021/10/05 01:52:31;;;;;;;5.80;4.83;;;10.80;99.90;10.50;96713.00;;;;5086058;28;20215;-72
2021/10/05 01:55:22;;;;;;;6.83;4.77;;;10.80;99.90;10.40;96702.00;;;;5086756;28;20682;-68
2021/10/05 01:58:11;;;;;;;8.57;5.60;;;10.70;99.90;10.50;96710.00;;;;5086259;28;20231;-69
2021/10/05 02:01:01;;;;;;;8.77;6.80;;;10.70;99.90;10.50;96704.00;;;;5084276;28;20214;-71
2021/10/05 02:03:50;;;;;;;9.20;7.30;;;10.70;99.90;10.60;96707.00;;;;5086674;28;20211;-71
2021/10/05 02:06:40;;;;;;;9.00;6.00;;;10.70;99.90;10.50;96701.00;;;;5084656;28;20195;-71
2021/10/05 02:09:29;;;;;;;7.00;5.47;;;10.70;99.90;10.50;96699.00;;;;5085285;28;20206;-69
2021/10/05 02:12:20;;;;;;;8.67;7.07;;;10.70;99.90;10.30;96706.00;;;;5085903;28;20230;-69
2021/10/05 02:15:10;;;;;;;7.53;5.83;;;10.70;99.90;10.50;96703.00;;;;5084995;28;20207;-69
2021/10/05 02:17:58;;;;;;;9.53;6.50;;;10.60;99.90;10.50;96689.00;;;;5076848;28;20230;-71
2021/10/05 02:20:47;;;;;;;5.93;5.13;;;10.60;99.90;10.50;96683.00;;;;5085233;28;20202;-70
2021/10/05 02:26:41;;;;;;;5.77;4.70;;;10.70;99.90;10.30;96691.00;;;;5084827;28;20684;-70
2021/10/05 02:29:36;;;;;;;4.63;4.13;;;10.60;99.90;10.00;96689.00;;;;5084795;28;20539;-69
2021/10/05 02:32:25;;;;;;;6.17;4.30;;;10.50;99.90;10.00;96690.00;;;;5084829;28;20226;-70
2021/10/05 02:35:14;;;;;;;4.60;3.60;;;10.40;99.90;9.90;96692.00;;;;5085701;28;20210;-71
2021/10/05 02:38:03;;;;;;;4.83;3.80;;;10.30;99.90;10.00;96688.00;;;;5085989;28;20246;-70
2021/10/05 02:40:52;;;;;;;5.63;4.20;;;10.30;99.90;10.20;96688.00;;;;5084863;28;20215;-69
2021/10/05 02:43:40;;;;;;;4.90;4.40;;;10.30;99.90;10.30;96678.00;;;;5085884;28;20210;-70
2021/10/05 02:46:31;;;;;;;7.53;4.10;;;10.40;99.90;10.40;96673.00;;;;5086307;28;20713;-70
2021/10/05 02:49:20;;;;;;;5.83;4.87;;;10.40;99.90;10.30;96668.00;;;;5085199;28;20211;-71
2021/10/05 02:52:08;;;;;;;6.47;5.87;;;10.50;99.90;9.80;96666.00;;;;5084756;28;20238;-71
2021/10/05 02:54:57;;;;;;;6.20;4.47;;;10.30;99.90;9.90;96676.00;;;;5084983;28;20211;-70
2021/10/05 02:57:46;;;;;;;7.60;4.00;;;10.30;99.90;10.10;96664.00;;;;5086132;28;20293;-70
2021/10/05 03:00:35;;;;;;;7.57;4.03;;;10.30;99.90;10.20;96648.00;;;;5085068;28;20199;-70
2021/10/05 03:03:25;;;;;;;5.43;4.67;;;10.30;99.90;10.20;96646.00;;;;5083570;28;20200;-71
2021/10/05 03:06:14;;;;;;;5.40;4.90;;;10.30;99.90;9.90;96645.00;;;;5082115;28;20207;-70
2021/10/05 03:09:03;;;;;;;4.87;4.43;;;10.30;99.90;9.70;96650.00;;;;5083915;28;20200;-71
2021/10/05 03:11:53;;;;;;;5.20;4.23;;;10.20;99.90;9.70;96654.00;;;;5084543;28;20219;-70
2021/10/05 03:14:42;;;;;;;5.13;4.40;;;10.10;99.90;10.10;96656.00;;;;5088427;28;20207;-70
2021/10/05 03:17:30;;;;;;;9.63;5.43;;;10.20;99.90;10.20;96644.00;;;;5075091;28;20223;-70
2021/10/05 03:20:21;;;;;;;6.63;4.93;;;10.20;99.90;10.20;96628.00;;;;5086215;28;20203;-70
2021/10/05 03:23:10;;;;;;;5.43;3.50;;;10.30;99.90;10.10;96637.00;;;;5087703;28;20809;-71
2021/10/05 03:25:59;;;;;;;7.60;4.03;;;10.30;99.90;9.70;96636.00;;;;5088284;28;20203;-70
2021/10/05 03:28:48;;;;;;;5.90;4.30;;;10.20;99.90;9.50;96642.00;;;;5086592;28;20207;-71
2021/10/05 03:31:37;;;;;;;9.67;5.10;;;10.10;99.90;9.60;96641.00;;;;5086636;28;21072;-71
2021/10/05 03:34:25;;;;;;;5.97;4.37;;;10.00;99.90;9.70;96646.00;;;;5087572;28;20199;-70
2021/10/05 03:37:16;;;;;;;6.80;4.43;;;10.00;99.90;9.80;96650.00;;;;5075251;28;20385;-71
2021/10/05 03:40:06;;;;;;;5.33;4.77;;;10.00;99.90;9.90;96653.00;;;;5086913;28;20587;-70
2021/10/05 03:42:55;;;;;;;6.03;5.17;;;10.00;99.90;9.90;96654.00;;;;5087719;28;20584;-70
2021/10/05 03:45:44;;;;;;;4.10;3.70;;;10.00;99.90;9.80;96652.00;;;;5086623;28;20213;-72
2021/10/05 03:48:34;;;;;;;5.30;4.80;;;10.00;99.90;9.80;96644.00;;;;5087490;28;20202;-71
2021/10/05 03:51:23;;;;;;;5.63;4.60;;;10.00;99.90;9.90;96658.00;;;;5087607;28;20227;-71
2021/10/05 03:54:14;;;;;;;3.77;3.47;;;10.00;99.90;9.80;96663.00;;;;5087675;28;20199;-71
2021/10/05 03:57:03;;;;;;;4.30;3.10;;;10.00;99.90;9.80;96659.00;;;;5088012;28;20203;-71
2021/10/05 03:59:51;;;;;;;6.03;3.90;;;10.00;99.90;9.60;96650.00;;;;5087195;28;20690;-71
2021/10/05 04:02:40;;;;;;;4.63;4.23;;;9.90;99.90;9.60;96642.00;;;;5085694;28;20235;-70
2021/10/05 04:05:29;;;;;;;6.67;4.80;;;9.90;99.90;9.50;96635.00;;;;5080628;28;20212;-71
2021/10/05 04:08:18;;;;;;;4.33;3.80;;;9.80;99.90;9.50;96631.00;;;;5088660;28;20199;-71
2021/10/05 04:11:09;;;;;;;6.47;4.07;;;9.80;99.90;9.20;96626.00;;;;5086698;28;20227;-71
2021/10/05 04:13:58;;;;;;;5.33;4.80;;;9.70;99.90;9.30;96613.00;;;;5087964;28;20211;-70
2021/10/05 04:16:47;;;;;;;5.57;4.70;;;9.70;99.90;9.40;96607.00;;;;5083889;28;20214;-71
2021/10/05 04:19:36;;;;;;;7.03;5.07;;;9.60;99.90;9.60;96609.00;;;;5069883;28;20227;-70
2021/10/05 04:22:24;;;;;;;7.27;6.50;;;9.70;99.90;9.70;96601.00;;;;5080482;28;20608;-71
2021/10/05 04:25:13;;;;;;;6.35;5.60;;;9.90;99.90;9.70;96589.00;;;;5079355;28;20199;-71
2021/10/05 04:28:04;;;;;;;6.03;5.27;;;9.90;99.90;9.40;96589.00;;;;5086192;28;20199;-69
2021/10/05 04:30:53;;;;;;;6.10;5.03;;;9.90;99.90;9.50;96578.00;;;;5084997;28;20210;-70
2021/10/05 04:33:42;;;;;;;7.30;5.27;;;10.10;99.90;9.80;96575.00;;;;5082548;28;20673;-71
2021/10/05 04:36:31;;;;;;;6.80;5.17;;;9.80;99.90;9.70;96581.00;;;;5079057;28;20210;-69
2021/10/05 04:39:19;;;;;;;6.20;4.80;;;9.90;99.90;9.70;96598.00;;;;5084974;28;20596;-71
2021/10/05 04:42:08;;;;;;;7.40;5.63;;;9.80;99.90;9.70;96593.00;;;;5076155;28;20227;-71
2021/10/05 04:44:59;;;;;;;4.80;4.13;;;9.80;99.90;9.80;96591.00;;;;5086614;28;20199;-70
2021/10/05 04:47:47;;;;;;;8.70;5.00;;;9.80;99.90;9.90;96599.00;;;;5087389;28;20207;-70
2021/10/05 04:50:37;;;;;;;5.93;5.33;;;9.90;99.90;9.90;96597.00;;;;5083116;28;20211;-70
2021/10/05 04:53:26;;;;;;;8.40;4.67;;;9.90;99.90;9.90;96591.00;;;;5085386;28;20674;-71
2021/10/05 04:56:15;;;;;;;5.97;5.37;;;9.90;99.90;9.80;96584.00;;;;5077519;28;20200;-71
2021/10/05 04:59:04;;;;;;;5.73;4.87;;;10.00;99.90;9.50;96573.00;;;;5086139;28;20226;-70
2021/10/05 05:01:54;;;;;;;8.33;5.13;;;9.90;99.90;9.50;96560.00;;;;5086467;28;20223;-71
2021/10/05 05:04:43;;;;;;;5.77;4.80;;;9.80;99.90;9.50;96561.00;;;;5087303;28;20203;-70
2021/10/05 05:07:33;;;;;;;9.37;5.73;;;9.70;99.90;9.30;96574.00;;;;5085780;28;20203;-70
2021/10/05 05:10:22;;;;;;;6.97;5.17;;;9.70;99.90;9.40;96571.00;;;;5085622;28;20199;-71
2021/10/05 05:13:11;;;;;;;9.80;5.60;;;9.70;99.90;9.60;96576.00;;;;5087185;28;20214;-70
2021/10/05 05:15:59;;;;;;;9.50;5.80;;;9.70;99.90;9.50;96571.00;;;;5079187;28;20208;-70
2021/10/05 05:18:50;;;;;;;8.50;5.83;;;9.70;99.90;9.40;96582.00;;;;5083979;28;20230;-70
2021/10/05 05:21:38;;;;;;;6.13;5.53;;;9.70;99.90;9.60;96562.00;;;;5086537;28;20697;-70
2021/10/05 05:24:28;;;;;;;8.30;5.50;;;9.70;99.90;9.50;96569.00;;;;5086966;28;20199;-71
2021/10/05 05:27:17;;;;;;;7.63;5.20;;;9.70;99.90;9.40;96584.00;;;;5072829;28;20670;-70
2021/10/05 05:30:08;;;;;;;5.60;4.97;;;9.70;99.90;9.40;96584.00;;;;5085693;28;20203;-71
2021/10/05 05:32:56;;;;;;;5.87;5.20;;;9.70;99.90;9.60;96596.00;;;;5086751;28;20230;-71
2021/10/05 05:35:48;;;;;;;6.53;5.03;;;9.70;99.90;9.80;96582.00;;;;5079767;28;20629;-70
2021/10/05 05:38:36;;;;;;;6.37;5.57;;;9.70;99.90;9.90;96579.00;;;;5086941;28;20667;-71
2021/10/05 05:41:25;;;;;;;6.30;5.53;;;9.80;99.90;9.90;96590.00;;;;5084771;28;20585;-71
2021/10/05 05:44:15;;;;;;;5.13;4.53;;;9.90;99.90;9.60;96591.00;;;;5086264;28;20203;-71
2021/10/05 05:47:04;;;;;;;6.03;4.93;;;9.90;99.90;9.70;96591.00;;;;5086120;28;20199;-71
2021/10/05 05:49:53;;;;;;;10.33;5.47;;;9.90;99.90;9.90;96598.00;;;;5085510;28;20269;-73
2021/10/05 05:52:43;;;;;;;6.13;5.37;;;9.90;99.90;10.10;96594.00;;;;5083690;28;20682;-71
2021/10/05 05:55:32;;;;;;;10.47;5.03;;;10.00;99.90;10.30;96594.00;;;;5086908;28;20211;-71
2021/10/05 05:58:21;;;;;;;5.53;5.03;;;11.10;99.90;10.50;96600.00;;;;5086111;28;20210;-70
2021/10/05 06:01:11;;;;;;;7.33;5.17;;;10.20;99.90;10.60;96601.00;;;;5085338;28;20227;-70
2021/10/05 06:04:00;;;;;;;5.63;4.67;;;10.40;99.90;10.50;96602.00;;;;5085634;28;20203;-71
2021/10/05 06:06:49;;;;;;;10.70;5.67;;;10.50;99.90;10.80;96586.00;;;;5075389;28;20229;-71
2021/10/05 06:09:39;;;;;;;7.70;5.43;;;10.50;99.90;10.90;96601.00;;;;5085038;28;20203;-70
2021/10/05 06:12:37;;;;;;;5.90;5.23;;;10.60;99.90;10.90;96600.00;;;;5084387;28;20227;-70
2021/10/05 06:15:26;;;;;;;6.37;5.77;;;10.80;99.90;11.00;96591.00;;;;5081430;28;20686;-72
2021/10/05 06:18:15;;;;;;;5.97;5.27;;;10.90;99.90;11.20;96601.00;;;;5079581;28;20210;-70
2021/10/05 06:21:04;;;;;;;9.63;5.93;;;10.90;99.90;11.50;96589.00;;;;5074710;28;20223;-69
2021/10/05 06:23:53;;;;;;;5.10;4.60;;;11.10;99.90;11.70;96580.00;;;;5085568;28;20204;-71
2021/10/05 06:26:44;;;;;;;5.80;5.20;;;10.50;99.90;11.70;96563.00;;;;5085064;28;20212;-71
2021/10/05 06:29:33;;;;;;;5.90;5.33;;;11.40;99.90;11.60;96575.00;;;;5084741;28;20670;-71
2021/10/05 06:32:22;;;;;;;6.97;6.27;;;11.50;99.90;11.70;96569.00;;;;5086128;28;20577;-70
2021/10/05 06:35:11;;;;;;;7.00;5.73;;;11.60;99.90;11.60;96577.00;;;;5086711;28;20695;-71
2021/10/05 06:38:01;;;;;;;9.60;6.17;;;11.70;99.90;11.70;96587.00;;;;5086185;28;20199;-71
2021/10/05 06:40:50;;;;;;;7.10;5.73;;;11.70;99.90;11.70;96587.00;;;;5074999;28;20226;-70
2021/10/05 06:43:40;;;;;;;7.77;5.90;;;11.80;99.90;12.10;96594.00;;;;5085604;28;20191;-70
2021/10/05 06:46:29;;;;;;;8.03;6.33;;;11.80;99.90;12.10;96608.00;;;;5083599;28;20200;-70
2021/10/05 06:49:18;;;;;;;7.47;6.10;;;12.00;99.90;12.20;96606.00;;;;5085668;28;20753;-71
2021/10/05 06:52:08;;;;;;;7.83;6.00;;;12.00;99.90;12.40;96605.00;;;;5081787;28;20614;-71
2021/10/05 06:54:57;;;;;;;7.40;5.80;;;12.20;99.90;12.60;96608.00;;;;5089473;28;20207;-71
2021/10/05 06:57:46;;;;;;;12.37;7.17;;;12.30;99.90;12.80;96602.00;;;;5089601;28;20191;-71
2021/10/05 07:00:37;;;;;;;10.07;7.47;;;12.40;99.90;12.80;96611.00;;;;5088280;28;20230;-70
2021/10/05 07:03:25;;;;;;;10.97;7.00;;;12.60;99.90;12.90;96604.00;;;;5090562;28;20211;-70
2021/10/05 07:06:14;;;;;;;11.50;6.33;;;12.70;99.90;12.90;96606.00;;;;5089108;28;20203;-71
2021/10/05 07:09:03;;;;;;;7.07;5.50;;;12.80;99.90;13.00;96611.00;;;;5089262;28;20214;-71
2021/10/05 07:11:52;;;;;;;8.97;5.97;;;12.90;99.90;13.20;96608.00;;;;5088178;28;20599;-71
2021/10/05 07:14:41;;;;;;;7.07;6.13;;;13.00;99.90;13.00;96615.00;;;;5089448;28;20693;-71
2021/10/05 07:17:31;;;;;;;11.30;6.27;;;13.10;99.90;13.20;96608.00;;;;5087609;28;20970;-71
2021/10/05 07:20:21;;;;;;;9.53;6.20;;;13.30;99.90;13.30;96615.00;;;;5087532;28;20712;-71
2021/10/05 07:23:09;;;;;;;7.57;5.83;;;13.20;99.90;13.50;96622.00;;;;5089314;28;20206;-71
2021/10/05 07:25:58;;;;;;;7.60;5.40;;;13.80;99.90;13.80;96618.00;;;;5087319;28;20253;-71
2021/10/05 07:28:47;;;;;;;13.10;5.83;;;13.40;99.90;13.80;96614.00;;;;5088035;28;20199;-72
2021/10/05 07:31:36;;;;;;;12.17;5.93;;;13.60;99.90;14.00;96610.00;;;;5087011;28;20226;-70
2021/10/05 07:34:29;;;;;;;6.40;5.10;;;13.70;99.90;13.90;96602.00;;;;5089493;28;20301;-71
2021/10/05 07:37:18;;;;;;;8.03;6.23;;;13.80;99.90;14.00;96600.00;;;;5085183;28;20199;-70
2021/10/05 07:40:15;;;;;;;12.73;5.93;;;13.90;99.90;14.00;96612.00;;;;5087607;28;20273;-71
2021/10/05 07:43:04;;;;;;;7.20;5.33;;;14.00;99.90;14.40;96604.00;;;;5088980;28;20591;-70
2021/10/05 07:45:53;;;;;;;6.00;5.50;;;14.00;99.90;14.70;96603.00;;;;5087093;28;20195;-70
2021/10/05 07:48:42;;;;;;;7.37;5.80;;;14.20;99.90;15.00;96600.00;;;;5087735;28;20692;-69
2021/10/05 07:51:33;;;;;;;6.23;5.00;;;14.40;99.90;15.00;96619.00;;;;5087115;28;20227;-72
2021/10/05 07:54:22;;;;;;;8.33;5.87;;;14.60;99.90;15.30;96610.00;;;;5088841;28;20204;-73
2021/10/05 07:57:11;;;;;;;8.33;5.17;;;14.80;99.90;15.70;96607.00;;;;5087665;28;20203;-71
2021/10/05 07:59:59;;;;;;;8.33;5.43;;;15.00;99.90;16.00;96596.00;;;;5086434;28;20601;-72
2021/10/05 08:02:48;;;;;;;6.90;4.90;;;15.30;99.90;16.30;96596.00;;;;5087124;28;20234;-72
2021/10/05 08:05:38;;;;;;;5.73;4.57;;;15.50;99.90;16.20;96603.00;;;;5082790;28;20199;-71
2021/10/05 08:08:29;;;;;;;7.83;5.40;;;15.80;99.90;16.40;96607.00;;;;5082462;28;20583;-72
2021/10/05 08:11:19;;;;;;;6.73;4.83;;;16.00;99.90;17.00;96591.00;;;;5079796;28;20600;-71
2021/10/05 08:14:08;;;;;;;6.13;5.53;;;16.20;99.90;17.70;96601.00;;;;5087006;28;20560;-69
2021/10/05 08:16:59;;;;;;;7.47;5.57;;;16.60;99.90;17.80;96604.00;;;;5081643;28;20238;-69
2021/10/05 08:19:48;;;;;;;7.93;5.60;;;16.90;99.90;18.00;96611.00;;;;5086385;28;20205;-70
2021/10/05 08:22:37;;;;;;;10.23;6.13;;;17.10;99.90;18.00;96618.00;;;;5076381;28;20234;-70
2021/10/05 08:25:28;;;;;;;8.57;5.17;;;17.30;99.90;17.80;96610.00;;;;5088003;28;20196;-70
2021/10/05 08:28:16;;;;;;;8.00;5.43;;;17.40;99.90;18.10;96607.00;;;;5080692;28;20200;-73
2021/10/05 08:31:05;;;;;;;6.77;5.77;;;17.50;99.90;18.60;96600.00;;;;5086595;28;20793;-70
2021/10/05 08:33:54;;;;;;;7.03;5.53;;;17.60;99.90;18.90;96599.00;;;;5087418;28;20207;-70
2021/10/05 08:36:43;;;;;;;7.30;5.80;;;17.90;99.90;19.30;96584.00;;;;5082556;28;20202;-70
2021/10/05 08:39:32;;;;;;;8.10;5.30;;;18.20;99.90;19.40;96598.00;;;;5081629;28;20226;-69
2021/10/05 08:42:23;;;;;;;5.53;5.03;;;18.40;99.90;19.80;96576.00;;;;5074765;28;20230;-69
2021/10/05 08:45:12;;;;;;;5.47;4.83;;;18.70;99.90;20.30;96583.00;;;;5087463;28;20203;-69
2021/10/05 08:48:01;;;;;;;7.23;5.67;;;19.10;99.90;20.30;96598.00;;;;5087145;28;20195;-70
2021/10/05 08:50:50;;;;;;;7.97;5.83;;;19.40;99.90;20.80;96588.00;;;;5086427;28;20685;-69
2021/10/05 08:53:40;;;;;;;8.90;8.00;;;19.70;99.90;20.70;96588.00;;;;5080933;28;20196;-71
2021/10/05 08:56:29;;;;;;;8.67;5.77;;;19.90;99.90;20.60;96578.00;;;;5083622;28;20716;-71
2021/10/05 08:59:19;;;;;;;6.07;5.53;;;20.00;99.90;20.60;96590.00;;;;5085856;28;20598;-71
2021/10/05 09:02:14;;;;;;;6.83;5.23;;;20.10;99.90;20.80;96589.00;;;;5085162;28;20223;-72
2021/10/05 09:05:03;;;;;;;5.90;5.40;;;20.10;99.90;20.60;96582.00;;;;5086277;28;20203;-70
2021/10/05 09:07:54;;;;;;;6.83;5.93;;;20.20;99.90;20.90;96585.00;;;;5086881;28;20573;-69
2021/10/05 09:10:43;;;;;;;8.27;6.30;;;20.20;99.90;21.00;96591.00;;;;5074682;28;20203;-71
2021/10/05 09:13:33;;;;;;;6.87;5.93;;;20.30;99.90;20.80;96590.00;;;;5086378;28;20199;-71
2021/10/05 09:16:26;;;;;;;8.97;6.30;;;20.30;99.90;21.00;96571.00;;;;5082548;28;20199;-71
2021/10/05 09:19:18;;;;;;;7.43;6.50;;;20.40;99.90;21.20;96572.00;;;;5081880;28;20199;-70
2021/10/05 09:22:17;;;;;;;9.73;6.10;;;20.50;99.90;21.10;96579.00;;;;5083862;28;20231;-71
2021/10/05 09:25:10;;;;;;;9.47;5.90;;;20.60;99.90;21.40;96578.00;;;;5075314;28;20303;-71
2021/10/05 09:28:01;;;;;;;7.13;6.43;;;20.70;99.90;21.60;96576.00;;;;5087031;28;20206;-71
2021/10/05 09:31:03;;;;;;;7.70;5.77;;;20.80;99.90;21.60;96580.00;;;;5078772;28;20210;-69
2021/10/05 09:33:54;;;;;;;10.77;6.37;;;20.90;99.90;21.70;96583.00;;;;5080586;28;20198;-69
2021/10/05 09:36:43;;;;;;;11.53;7.13;;;21.00;99.90;22.00;96584.00;;;;5086918;28;20199;-70
2021/10/05 09:39:42;;;;;;;11.70;7.07;;;21.20;99.90;22.20;96584.00;;;;5085986;28;20214;-69
2021/10/05 09:42:34;;;;;;;9.17;6.07;;;21.40;99.90;22.40;96580.00;;;;5084619;28;20227;-71
2021/10/05 09:45:28;;;;;;;11.27;6.20;;;21.50;99.90;22.20;96577.00;;;;5086402;28;20196;-71
2021/10/05 09:48:17;;;;;;;7.00;5.27;;;21.30;99.90;21.80;96589.00;;;;5083781;28;20207;-69
2021/10/05 09:51:23;;;;;;;6.73;6.10;;;21.60;99.90;22.60;96586.00;;;;5085275;28;20237;-69
2021/10/05 09:54:12;;;;;;;11.53;6.73;;;21.60;99.90;22.50;96595.00;;;;5086164;28;20203;-70
2021/10/05 09:57:01;;;;;;;6.97;5.67;;;21.70;99.90;21.50;96589.00;;;;5085775;28;20200;-69
2021/10/05 09:59:49;;;;;;;8.80;5.27;;;21.60;99.90;21.80;96581.00;;;;5074341;28;20204;-69
2021/10/05 10:02:40;;;;;;;6.87;6.10;;;21.40;99.90;21.70;96595.00;;;;5075118;28;20235;-68
2021/10/05 10:05:29;;;;;;;10.80;6.67;;;21.40;99.90;21.60;96582.00;;;;5079854;28;20191;-70
2021/10/05 10:08:22;;;;;;;10.50;6.80;;;21.30;99.90;21.70;96572.00;;;;5086403;28;20203;-70
2021/10/05 10:11:11;;;;;;;19.60;7.67;;;21.30;99.90;22.10;96564.00;;;;5073279;28;20231;-69
2021/10/05 10:14:01;;;;;;;11.37;6.63;;;21.30;99.90;22.20;96567.00;;;;5082253;28;20597;-69
2021/10/05 10:16:51;;;;;;;15.47;6.30;;;21.30;99.90;22.20;96578.00;;;;5079650;28;20204;-69
2021/10/05 10:19:40;;;;;;;9.67;5.77;;;21.40;99.90;22.20;96575.00;;;;5079847;28;20208;-68
2021/10/05 10:22:29;;;;;;;10.57;5.87;;;21.50;99.90;22.00;96571.00;;;;5086202;28;20231;-69
2021/10/05 10:25:24;;;;;;;7.73;5.60;;;21.50;99.90;21.90;96569.00;;;;5079914;28;20678;-68
2021/10/05 10:28:15;;;;;;;7.93;5.57;;;21.40;99.90;21.80;96570.00;;;;5089736;28;20207;-69
2021/10/05 10:31:08;;;;;;;6.10;4.90;;;21.40;99.90;21.40;96576.00;;;;5088452;28;20223;-68
2021/10/05 10:33:57;;;;;;;6.17;5.23;;;21.20;99.90;21.30;96569.00;;;;5091385;28;20203;-70
2021/10/05 10:36:46;;;;;;;8.57;5.70;;;21.10;99.90;20.70;96560.00;;;;5090784;28;20203;-70
2021/10/05 10:39:39;;;;;;;5.10;4.70;;;20.90;99.90;20.90;96569.00;;;;5088615;28;20551;-69
2021/10/05 10:42:31;;;;;;;7.23;5.37;;;20.80;99.90;21.20;96558.00;;;;5089319;28;20752;-68
2021/10/05 10:45:21;;;;;;;6.23;5.63;;;20.80;99.90;21.40;96553.00;;;;5090621;28;20207;-68
2021/10/05 10:48:10;;;;;;;8.87;5.73;;;20.90;99.90;21.80;96547.00;;;;5087469;28;20199;-70
2021/10/05 10:51:15;;;;;;;6.57;5.97;;;21.00;99.90;22.30;96545.00;;;;5088823;28;20203;-68
2021/10/05 10:54:14;;;;;;;5.37;4.83;;;21.20;99.90;22.00;96539.00;;;;5090661;28;20206;-70
2021/10/05 10:57:08;;;;;;;8.73;5.70;;;21.40;99.90;22.50;96547.00;;;;5084247;28;20242;-70
2021/10/05 11:00:17;;;;;;;7.00;5.23;;;21.60;99.90;22.30;96542.00;;;;5089855;28;20690;-70
2021/10/05 11:03:06;;;;;;;9.03;5.40;;;21.80;99.90;21.70;96535.00;;;;5079166;28;20843;-71
2021/10/05 11:05:55;;;;;;;7.17;6.47;;;21.70;99.90;21.40;96541.00;;;;5083085;28;20215;-72
2021/10/05 11:08:55;;;;;;;7.93;5.73;;;21.60;99.90;21.60;96542.00;;;;5086007;28;20577;-71
2021/10/05 11:11:46;;;;;;;9.67;6.20;;;21.40;99.90;21.60;96537.00;;;;5086585;28;20231;-71
2021/10/05 11:14:38;;;;;;;7.63;5.90;;;21.30;99.90;21.30;96528.00;;;;5079548;28;20210;-69
2021/10/05 11:17:34;;;;;;;8.43;6.37;;;21.20;99.90;21.00;96512.00;;;;5069293;28;20214;-70
2021/10/05 11:20:23;;;;;;;9.20;5.83;;;21.10;99.90;21.30;96521.00;;;;5085381;28;20210;-71
2021/10/05 11:23:13;;;;;;;6.80;5.50;;;21.00;99.90;21.30;96524.00;;;;5087095;28;20230;-71
2021/10/05 11:26:02;;;;;;;5.93;5.43;;;20.90;99.90;21.30;96532.00;;;;5087808;28;20222;-71
2021/10/05 11:28:51;;;;;;;7.13;5.53;;;20.90;99.90;21.40;96514.00;;;;5078574;28;20203;-70
2021/10/05 11:31:49;;;;;;;5.57;4.90;;;21.00;99.90;21.40;96519.00;;;;5080509;28;20694;-70
2021/10/05 11:34:43;;;;;;;13.10;6.73;;;20.90;99.90;21.00;96507.00;;;;5086692;28;20218;-71
2021/10/05 11:37:34;;;;;;;8.87;5.60;;;20.90;99.90;21.10;96499.00;;;;5086869;28;20212;-69
2021/10/05 11:40:23;;;;;;;6.57;5.90;;;20.80;99.90;21.10;96501.00;;;;5086040;28;20218;-71
2021/10/05 11:43:12;;;;;;;5.97;5.47;;;20.80;99.90;21.10;96513.00;;;;5076400;28;20227;-69
2021/10/05 11:46:09;;;;;;;6.23;5.63;;;20.80;99.90;21.20;96504.00;;;;5087419;28;20210;-70
2021/10/05 11:48:58;;;;;;;10.40;5.87;;;20.80;99.90;21.20;96514.00;;;;5082212;28;20584;-70
2021/10/05 11:51:51;;;;;;;9.20;5.70;;;20.80;99.90;21.10;96511.00;;;;5086751;28;20733;-71
2021/10/05 11:54:41;;;;;;;6.10;5.50;;;20.80;99.90;21.10;96515.00;;;;5075327;28;20577;-72
2021/10/05 11:57:36;;;;;;;6.60;5.93;;;20.80;99.90;21.20;96515.00;;;;5086829;28;20552;-70
2021/10/05 12:00:25;;;;;;;6.37;5.70;;;20.80;99.90;21.30;96516.00;;;;5086387;28;20226;-71
2021/10/05 12:03:14;;;;;;;9.07;6.00;;;20.80;99.90;21.30;96508.00;;;;5087180;28;20227;-71
2021/10/05 12:06:03;;;;;;;8.40;5.50;;;20.80;99.90;21.40;96499.00;;;;5082396;28;20208;-70
2021/10/05 12:08:53;;;;;;;6.97;5.67;;;20.80;99.90;21.40;96459.00;;;;5087388;28;20207;-70
2021/10/05 12:11:45;;;;;;;8.40;5.47;;;20.90;99.90;22.50;96421.00;;;;5087185;28;20609;-71
2021/10/05 12:14:38;;;;;;;7.97;5.60;;;21.20;99.90;22.90;96473.00;;;;5087802;28;20218;-71
2021/10/05 12:17:33;;;;;;;9.57;5.33;;;21.80;99.90;23.00;96469.00;;;;5069165;28;20678;-70
2021/10/05 12:20:21;;;;;;;4.90;4.40;;;22.10;99.90;24.20;96439.00;;;;5084234;28;20207;-71
2021/10/05 12:23:11;;;;;;;6.13;5.17;;;22.60;99.90;25.10;96421.00;;;;5086795;28;20219;-73
2021/10/05 12:26:15;;;;;;;6.50;4.63;;;23.40;99.90;24.70;96461.00;;;;5084767;28;20201;-73
2021/10/05 12:29:10;;;;;;;5.40;4.53;;;24.00;99.90;23.80;96457.00;;;;5087164;28;20217;-73
2021/10/05 12:32:02;;;;;;;5.70;5.20;;;24.00;99.90;23.50;96473.00;;;;5081917;28;20229;-70
2021/10/05 12:34:53;;;;;;;5.97;5.37;;;23.60;99.90;23.80;96455.00;;;;5087576;28;20208;-70
2021/10/05 12:37:42;;;;;;;7.97;5.53;;;23.50;99.90;23.60;96462.00;;;;5086494;28;20201;-70
2021/10/05 12:40:43;;;;;;;7.10;5.63;;;23.40;99.90;23.10;96467.00;;;;5082415;28;20209;-70
2021/10/05 12:43:43;;;;;;;5.17;4.63;;;23.30;99.90;23.00;96464.00;;;;5084886;28;20494;-71